עמוד ראשי
METAR-TAF:

METAR-TAF

שדות תעופה :

San Fernando, ארגנטינה

קו רוחב: 34-27-11S, קו אורך: 058-35-23W, גובה: 3מטר

תצפית מזג אוויר נוכחית

הדו"ח נערך לפני 1 שעות ו 6דקות, בשעה 02:00 UTC
רוח 2קשר עם כיוונים משתנים
טמפרטורת 10 צלסיוס
לחות 87%
לחץ 1019 hPa
ראות 10 קילומטר או יותר
ללא עננים שבסיסם נמוך מ 5000 רגל או קומולונימבוס

METAR: SADF 200200Z VRB02KT CAVOK 10/08 Q1019

זמן: 00:06 (03:06 UTC)

תחזית

הדו"ח נערך לפני 4 שעות ו 6דקות, בשעה 23:00 UTC
תחזית בתוקף מ 20 ב 00 UTC עד 20 ב 24 UTC
רוח 5קשר מכיוון דרום-מערב
ראות 10 קילומטר או יותר
ללא עננים שבסיסם נמוך מ 5000 רגל או קומולונימבוס
הסתברות 30%
20 ב 06 UTC עד 20 ב 10 UTC
רוח 5קשר מכיוון דרום/דרום-מזרח
ראות: 5000מטר
מעט עננים בגובה 2000רגל
אד
יעשה מ
20 ב 18 UTC עד 20 ב 20 UTC
רוח 15קשר מכיוון מזרח עם משבים עד 25קשר
ראות 10 קילומטר או יותר
עננים פזורים בגובה 3000רגל

TAF: SADF 192300Z 2000/2024 22005KT CAVOK TX16/2018Z TN09/2011Z PROB30 2006/2010 16005KT 5000 BR FEW020 BECMG 2018/2020 09015G25KT 9999 SCT030

תצפיות ותחזיות מזג אוויר לגבי יותר מ- 4,000 שדות תעופה ברחבי העולם. דוחות METAR ו- TAF.

התחנות הזמינות מסומנות בנקודות צהובות ואדומות על גבי המפה.

העבר את העכבר לנקודה הצבעונית על מנת לראות את שם התחנה.

לאחר מכן, לחץ כדי לראות את תוכן ואת תחזיות מזג האוויר.

כדי לשנות את המפה: לחץ על הכפתורים הירוקים עם הפלוס השחור כדי להתקרב; על הכפתור הירוק עם המקף כדי להתרחק; או בחיצים הירוקים למפות סמוכות.


METAR-TAF: